createdAt,value
2023-02-13T00:01:27.920Z,83.20
2023-02-13T00:04:13.454Z,83.30
2023-02-13T00:06:59.061Z,83.40
2023-02-13T00:09:47.602Z,83.30
2023-02-13T00:12:34.100Z,83.30
2023-02-13T00:15:19.618Z,83.40
2023-02-13T00:18:05.706Z,83.40
2023-02-13T00:21:17.739Z,83.60
2023-02-13T00:24:06.113Z,83.60
2023-02-13T00:26:51.339Z,83.40
2023-02-13T00:29:36.927Z,83.40
2023-02-13T00:32:25.673Z,83.40
2023-02-13T00:35:13.313Z,83.40
2023-02-13T00:37:58.588Z,83.60
2023-02-13T00:40:44.154Z,83.40
2023-02-13T00:43:29.986Z,83.50
2023-02-13T00:46:17.074Z,83.50
2023-02-13T00:49:02.688Z,83.60
2023-02-13T00:51:47.896Z,83.70
2023-02-13T00:54:33.275Z,83.80
2023-02-13T00:57:18.820Z,83.80
2023-02-13T01:00:05.004Z,83.80
2023-02-13T01:02:50.670Z,83.70
2023-02-13T01:05:42.605Z,83.90
2023-02-13T01:08:30.894Z,84.00
2023-02-13T01:11:16.291Z,83.90
2023-02-13T01:14:05.258Z,83.90
2023-02-13T01:16:50.991Z,83.80
2023-02-13T01:19:36.172Z,84.10
2023-02-13T01:22:21.968Z,84.70
2023-02-13T01:25:07.955Z,84.20
2023-02-13T01:27:53.188Z,84.30
2023-02-13T01:30:39.961Z,84.20
2023-02-13T01:33:27.720Z,84.50
2023-02-13T01:36:14.282Z,84.50
2023-02-13T01:39:00.205Z,84.30
2023-02-13T01:41:45.507Z,84.30
2023-02-13T01:45:05.333Z,84.50
2023-02-13T01:48:05.707Z,84.40
2023-02-13T01:50:57.078Z,84.50
2023-02-13T01:54:10.608Z,85.30
2023-02-13T01:57:03.259Z,84.70
2023-02-13T01:59:56.928Z,84.60
2023-02-13T02:02:48.970Z,84.50
2023-02-13T02:05:38.593Z,84.60
2023-02-13T02:08:49.816Z,84.60
2023-02-13T02:11:42.656Z,84.80
2023-02-13T02:14:30.278Z,84.70
2023-02-13T02:17:16.924Z,84.70
2023-02-13T02:20:43.646Z,84.70
2023-02-13T02:23:29.160Z,84.50
2023-02-13T02:26:43.896Z,84.70
2023-02-13T02:29:47.878Z,84.50
2023-02-13T02:32:51.584Z,84.80
2023-02-13T02:36:11.283Z,84.90
2023-02-13T02:39:15.102Z,84.70
2023-02-13T02:42:12.778Z,84.70
2023-02-13T02:45:25.767Z,84.90
2023-02-13T02:48:51.014Z,84.80
2023-02-13T02:52:02.520Z,85.00
2023-02-13T02:55:06.740Z,85.00
2023-02-13T02:58:38.579Z,85.00
2023-02-13T03:01:45.570Z,85.00
2023-02-13T03:04:58.901Z,85.20
2023-02-13T03:07:44.364Z,85.10
2023-02-13T03:10:53.532Z,85.20
2023-02-13T03:13:44.632Z,85.10
2023-02-13T03:16:48.924Z,85.00
2023-02-13T03:20:26.010Z,85.00
2023-02-13T03:23:45.962Z,85.10
2023-02-13T03:27:14.991Z,85.40
2023-02-13T03:30:11.922Z,85.10
2023-02-13T03:33:06.524Z,85.10
2023-02-13T03:36:29.756Z,85.20
2023-02-13T03:39:35.713Z,85.30
2023-02-13T03:42:37.836Z,85.40
2023-02-13T03:45:49.181Z,85.40
2023-02-13T03:48:59.246Z,85.40
2023-02-13T03:52:04.271Z,85.50
2023-02-13T03:55:15.878Z,85.50
2023-02-13T03:58:38.733Z,85.20
2023-02-13T04:01:28.316Z,85.50
2023-02-13T04:04:27.003Z,85.30
2023-02-13T04:07:29.390Z,85.20
2023-02-13T04:10:36.154Z,85.50
2023-02-13T04:13:38.893Z,85.40
2023-02-13T04:16:45.654Z,85.40
2023-02-13T04:19:32.986Z,85.40
2023-02-13T04:22:18.250Z,85.20
2023-02-13T04:25:03.753Z,85.30
2023-02-13T04:27:48.992Z,85.20
2023-02-13T04:30:34.829Z,85.10
2023-02-13T04:33:20.410Z,85.20
2023-02-13T04:36:06.179Z,85.40
2023-02-13T04:38:54.314Z,85.20
2023-02-13T04:41:39.696Z,85.30
2023-02-13T04:44:25.105Z,85.40
2023-02-13T04:47:10.786Z,85.40
2023-02-13T04:49:55.939Z,85.40
2023-02-13T04:52:41.646Z,85.30
2023-02-13T04:55:28.219Z,85.30
2023-02-13T04:58:14.034Z,85.30
2023-02-13T05:00:59.675Z,85.40
2023-02-13T05:03:45.466Z,85.20
2023-02-13T05:06:34.895Z,85.10
2023-02-13T05:09:20.411Z,85.30
2023-02-13T05:12:05.927Z,85.30
2023-02-13T05:14:51.845Z,85.30
2023-02-13T05:17:37.212Z,85.30
2023-02-13T05:20:22.840Z,85.40
2023-02-13T05:23:23.385Z,85.40
2023-02-13T05:26:08.761Z,85.50
2023-02-13T05:29:13.632Z,85.50
2023-02-13T05:32:00.247Z,85.60
2023-02-13T05:34:46.022Z,85.60
2023-02-13T05:37:32.076Z,85.60
2023-02-13T05:40:17.582Z,85.70
2023-02-13T05:43:02.959Z,85.70
2023-02-13T05:45:48.444Z,85.70
2023-02-13T05:48:34.879Z,85.60
2023-02-13T05:51:20.927Z,85.80
2023-02-13T05:54:06.286Z,86.00
2023-02-13T05:56:52.002Z,86.00
2023-02-13T05:59:37.340Z,86.00
2023-02-13T06:02:23.005Z,86.10
2023-02-13T06:05:08.586Z,86.00
2023-02-13T06:07:54.133Z,85.90
2023-02-13T06:10:39.821Z,86.10
2023-02-13T06:13:27.857Z,86.30
2023-02-13T06:16:16.825Z,87.10
2023-02-13T06:19:02.896Z,86.40
2023-02-13T06:21:48.485Z,86.40
2023-02-13T06:24:33.874Z,86.30
2023-02-13T06:27:20.046Z,86.50
2023-02-13T06:30:05.989Z,86.50
2023-02-13T06:32:51.553Z,86.50
2023-02-13T06:35:37.203Z,86.60
2023-02-13T06:38:24.406Z,86.50
2023-02-13T06:41:10.298Z,86.40
2023-02-13T06:44:00.944Z,86.50
2023-02-13T06:46:47.187Z,86.50
2023-02-13T06:49:33.211Z,86.70
2023-02-13T06:52:19.934Z,86.80
2023-02-13T06:55:05.495Z,86.90
2023-02-13T06:57:53.455Z,86.90
2023-02-13T07:00:39.034Z,86.90
2023-02-13T07:03:24.462Z,87.00
2023-02-13T07:06:10.041Z,87.20
2023-02-13T07:08:55.993Z,87.40
2023-02-13T07:11:44.540Z,88.10
2023-02-13T07:14:30.702Z,87.50
2023-02-13T07:17:16.909Z,87.60
2023-02-13T07:20:04.434Z,87.50
2023-02-13T07:22:49.706Z,87.40
2023-02-13T07:25:36.956Z,87.10
2023-02-13T07:28:22.521Z,86.50
2023-02-13T07:31:08.349Z,86.20
2023-02-13T07:33:54.356Z,86.20
2023-02-13T07:36:39.708Z,86.20
2023-02-13T07:39:25.443Z,86.50
2023-02-13T07:42:11.215Z,86.70
2023-02-13T07:44:57.429Z,87.00
2023-02-13T07:47:43.370Z,87.30
2023-02-13T07:50:29.312Z,87.50
2023-02-13T07:53:15.176Z,87.70
2023-02-13T07:56:06.225Z,88.00
2023-02-13T07:58:51.789Z,88.40
2023-02-13T08:01:37.811Z,88.40
2023-02-13T08:04:25.387Z,88.60
2023-02-13T08:07:14.345Z,88.90
2023-02-13T08:10:18.568Z,89.00
2023-02-13T08:13:04.944Z,89.20
2023-02-13T08:15:50.792Z,89.50
2023-02-13T08:18:36.068Z,89.60
2023-02-13T08:21:21.673Z,89.90
2023-02-13T08:24:07.424Z,90.00
2023-02-13T08:26:53.385Z,90.00
2023-02-13T08:29:38.702Z,90.10
2023-02-13T08:32:25.339Z,90.10
2023-02-13T08:35:10.588Z,90.30
2023-02-13T08:37:56.464Z,90.30
2023-02-13T08:40:44.584Z,90.40
2023-02-13T08:43:30.102Z,90.40
2023-02-13T08:46:16.948Z,90.40
2023-02-13T08:49:02.482Z,90.50
2023-02-13T08:51:47.958Z,90.70
2023-02-13T08:54:35.321Z,90.70
2023-02-13T08:57:20.912Z,90.70
2023-02-13T09:00:09.933Z,90.80
2023-02-13T09:02:55.766Z,90.80
2023-02-13T09:05:44.409Z,90.80
2023-02-13T09:08:30.074Z,90.90
2023-02-13T09:11:15.943Z,90.90
2023-02-13T09:14:01.350Z,90.90
2023-02-13T09:16:46.754Z,91.00
2023-02-13T09:19:32.183Z,91.00
2023-02-13T09:22:17.993Z,91.00
2023-02-13T09:25:04.393Z,91.00
2023-02-13T09:27:53.134Z,91.00
2023-02-13T09:30:38.424Z,90.90
2023-02-13T09:33:24.864Z,90.90
2023-02-13T09:36:14.592Z,90.90
2023-02-13T09:39:03.951Z,90.80
2023-02-13T09:41:52.542Z,90.80
2023-02-13T09:44:46.514Z,90.70
2023-02-13T09:47:36.034Z,91.00
2023-02-13T09:50:26.149Z,91.10
2023-02-13T09:53:21.258Z,90.80
2023-02-13T09:56:17.053Z,90.80
2023-02-13T09:59:34.343Z,90.60
2023-02-13T10:02:28.889Z,90.60
2023-02-13T10:05:46.972Z,90.40
2023-02-13T10:08:51.064Z,90.30
2023-02-13T10:12:04.165Z,90.40
2023-02-13T10:15:05.900Z,90.30
2023-02-13T10:17:59.680Z,90.10
2023-02-13T10:21:02.444Z,90.20
2023-02-13T10:23:56.977Z,90.20
2023-02-13T10:26:45.546Z,90.10
2023-02-13T10:30:02.117Z,90.10
2023-02-13T10:33:18.560Z,89.90
2023-02-13T10:36:16.484Z,89.60
2023-02-13T10:39:05.032Z,89.50
2023-02-13T10:42:13.356Z,89.40
2023-02-13T10:45:07.681Z,89.50
2023-02-13T10:48:02.233Z,89.30
2023-02-13T10:51:21.137Z,89.00
2023-02-13T10:54:46.855Z,88.90
2023-02-13T10:57:41.167Z,88.20
2023-02-13T11:00:39.049Z,88.80
2023-02-13T11:03:28.326Z,87.40
2023-02-13T11:06:18.456Z,86.60
2023-02-13T11:09:08.178Z,86.50
2023-02-13T11:11:54.019Z,86.40
2023-02-13T11:14:54.797Z,86.50
2023-02-13T11:17:44.109Z,83.60
2023-02-13T11:20:37.190Z,84.60
2023-02-13T11:23:34.477Z,84.80
2023-02-13T11:26:38.764Z,83.40
2023-02-13T11:29:30.915Z,82.30
2023-02-13T11:32:24.328Z,82.20
2023-02-13T11:35:29.940Z,80.70
2023-02-13T11:38:15.420Z,79.20
2023-02-13T11:41:11.247Z,77.40
2023-02-13T11:44:02.106Z,77.00
2023-02-13T11:46:50.818Z,76.10
2023-02-13T11:49:39.549Z,73.60
2023-02-13T11:52:31.887Z,66.70
2023-02-13T11:55:38.335Z,66.80
2023-02-13T11:58:27.592Z,62.70
2023-02-13T12:01:22.156Z,61.00
2023-02-13T12:04:18.081Z,54.00
2023-02-13T12:07:27.521Z,54.00
2023-02-13T12:10:18.090Z,51.70
2023-02-13T12:13:27.638Z,49.90
2023-02-13T12:16:38.733Z,45.40
2023-02-13T12:19:29.529Z,45.50
2023-02-13T12:22:57.528Z,43.30
2023-02-13T12:25:46.935Z,41.50
2023-02-13T12:31:38.884Z,36.90
2023-02-13T12:34:54.539Z,38.10
2023-02-13T12:37:58.099Z,38.50
2023-02-13T12:41:01.645Z,36.70
2023-02-13T12:44:03.237Z,35.50
2023-02-13T12:47:00.468Z,34.30
2023-02-13T12:50:13.992Z,31.50
2023-02-13T12:53:04.955Z,32.20
2023-02-13T12:55:50.407Z,31.90
2023-02-13T12:59:04.183Z,29.20
2023-02-13T13:01:49.796Z,29.20
2023-02-13T13:05:06.371Z,30.00
2023-02-13T13:08:02.202Z,30.60
2023-02-13T13:11:23.285Z,29.50
2023-02-13T13:14:14.513Z,28.70
2023-02-13T13:17:18.248Z,27.80
2023-02-13T13:20:14.406Z,27.50
2023-02-13T13:23:13.138Z,27.90
2023-02-13T13:26:10.825Z,27.10
2023-02-13T13:29:00.024Z,25.90
2023-02-13T13:32:07.323Z,25.80
2023-02-13T13:34:53.469Z,26.10
2023-02-13T13:38:02.769Z,25.40
2023-02-13T13:41:05.149Z,24.80
2023-02-13T13:44:15.504Z,24.10
2023-02-13T13:47:16.857Z,23.80
2023-02-13T13:50:06.457Z,23.80
2023-02-13T13:53:19.900Z,22.60
2023-02-13T13:56:07.960Z,22.10
2023-02-13T13:58:54.754Z,23.60
2023-02-13T14:01:40.511Z,23.90
2023-02-13T14:04:43.747Z,23.50
2023-02-13T14:07:41.512Z,22.90
2023-02-13T14:10:29.411Z,22.70
2023-02-13T14:13:39.461Z,22.60
2023-02-13T14:16:45.533Z,23.50
2023-02-13T14:19:42.683Z,24.30
2023-02-13T14:22:38.433Z,24.90
2023-02-13T14:25:28.795Z,24.90
2023-02-13T14:28:24.818Z,25.50
2023-02-13T14:31:25.367Z,25.80
2023-02-13T14:34:18.319Z,26.00
2023-02-13T14:37:06.709Z,26.30
2023-02-13T14:40:32.199Z,26.90
2023-02-13T14:43:22.474Z,26.40
2023-02-13T14:46:09.553Z,25.70
2023-02-13T14:49:02.722Z,24.90
2023-02-13T14:51:54.373Z,25.00
2023-02-13T14:54:52.705Z,25.70
2023-02-13T14:57:59.480Z,25.30
2023-02-13T15:00:53.437Z,25.00
2023-02-13T15:03:49.818Z,24.50
2023-02-13T15:06:40.735Z,24.20
2023-02-13T15:09:40.529Z,23.50
2023-02-13T15:12:32.267Z,24.50
2023-02-13T15:15:26.983Z,24.70
2023-02-13T15:18:25.095Z,24.40
2023-02-13T15:21:27.043Z,24.10
2023-02-13T15:24:15.036Z,23.80
2023-02-13T15:27:06.352Z,24.30
2023-02-13T15:30:18.060Z,24.30
2023-02-13T15:33:17.393Z,24.80
2023-02-13T15:36:06.338Z,24.90
2023-02-13T15:39:09.832Z,24.90
2023-02-13T15:42:01.550Z,25.20
2023-02-13T15:45:01.695Z,25.70
2023-02-13T15:47:51.099Z,27.30
2023-02-13T15:50:36.646Z,29.10
2023-02-13T15:53:23.746Z,30.40
2023-02-13T15:56:17.356Z,30.50
2023-02-13T15:59:03.629Z,30.80
2023-02-13T16:01:51.806Z,30.50
2023-02-13T16:04:38.095Z,30.00
2023-02-13T16:07:24.051Z,30.10
2023-02-13T16:10:35.372Z,30.00
2023-02-13T16:13:24.237Z,30.30
2023-02-13T16:16:12.825Z,30.30
2023-02-13T16:18:58.248Z,31.10
2023-02-13T16:21:43.795Z,31.60
2023-02-13T16:24:29.462Z,32.30
2023-02-13T16:27:16.241Z,33.10
2023-02-13T16:30:09.661Z,33.80
2023-02-13T16:33:16.950Z,35.10
2023-02-13T16:36:11.210Z,37.50
2023-02-13T16:39:11.544Z,39.30
2023-02-13T16:42:01.915Z,41.40
2023-02-13T16:45:23.324Z,42.90
2023-02-13T16:48:15.710Z,44.80
2023-02-13T16:51:01.307Z,46.20
2023-02-13T16:53:46.946Z,47.50
2023-02-13T16:56:46.564Z,48.90
2023-02-13T16:59:47.330Z,50.30
2023-02-13T17:02:38.872Z,51.20
2023-02-13T17:05:30.623Z,52.40
2023-02-13T17:08:15.823Z,53.60
2023-02-13T17:11:07.780Z,54.50
2023-02-13T17:13:53.045Z,55.50
2023-02-13T17:16:38.716Z,56.30
2023-02-13T17:19:24.316Z,57.20
2023-02-13T17:22:21.877Z,58.10
2023-02-13T17:25:18.098Z,59.00
2023-02-13T17:28:14.797Z,59.60
2023-02-13T17:31:00.777Z,60.60
2023-02-13T17:33:46.541Z,61.30
2023-02-13T17:36:31.955Z,62.20
2023-02-13T17:39:17.714Z,63.00
2023-02-13T17:42:03.159Z,63.90
2023-02-13T17:44:52.189Z,65.50
2023-02-13T17:47:37.878Z,65.50
2023-02-13T17:50:25.083Z,66.20
2023-02-13T17:53:32.735Z,67.00
2023-02-13T17:56:20.677Z,68.00
2023-02-13T17:59:06.071Z,68.80
2023-02-13T18:01:52.518Z,69.60
2023-02-13T18:04:42.160Z,70.40
2023-02-13T18:07:27.332Z,71.00
2023-02-13T18:10:25.864Z,71.50
2023-02-13T18:13:11.480Z,72.30
2023-02-13T18:15:56.828Z,72.70
2023-02-13T18:18:43.867Z,72.90
2023-02-13T18:21:29.550Z,73.40
2023-02-13T18:24:17.739Z,73.90
2023-02-13T18:27:03.661Z,74.40
2023-02-13T18:29:49.219Z,74.70
2023-02-13T18:32:41.338Z,75.10
2023-02-13T18:35:27.424Z,75.40
2023-02-13T18:38:12.787Z,75.70
2023-02-13T18:40:58.603Z,76.20
2023-02-13T18:43:47.629Z,76.70
2023-02-13T18:46:33.505Z,77.50
2023-02-13T18:49:19.194Z,77.70
2023-02-13T18:52:04.964Z,78.20
2023-02-13T18:54:51.231Z,78.60
2023-02-13T18:57:36.983Z,78.80
2023-02-13T19:00:23.526Z,79.00
2023-02-13T19:03:08.735Z,79.10
2023-02-13T19:05:57.371Z,79.40
2023-02-13T19:08:43.052Z,79.70
2023-02-13T19:11:28.849Z,80.00
2023-02-13T19:14:21.915Z,80.30
2023-02-13T19:17:08.588Z,80.40
2023-02-13T19:19:55.599Z,80.70
2023-02-13T19:22:40.732Z,80.80
2023-02-13T19:25:26.276Z,80.90
2023-02-13T19:28:32.383Z,81.20
2023-02-13T19:31:21.575Z,81.50
2023-02-13T19:34:07.261Z,81.70
2023-02-13T19:36:52.639Z,82.00
2023-02-13T19:39:38.355Z,82.20
2023-02-13T19:42:26.363Z,82.50
2023-02-13T19:45:11.691Z,82.70
2023-02-13T19:47:57.274Z,83.00
2023-02-13T19:50:42.881Z,83.20
2023-02-13T19:53:28.347Z,83.40
2023-02-13T19:56:14.380Z,83.70
2023-02-13T19:58:59.707Z,83.90
2023-02-13T20:01:45.978Z,84.30
2023-02-13T20:04:32.325Z,84.50
2023-02-13T20:07:17.865Z,84.50
2023-02-13T20:10:04.475Z,85.00
2023-02-13T20:12:53.720Z,85.30
2023-02-13T20:15:40.315Z,85.10
2023-02-13T20:18:28.414Z,85.30
2023-02-13T20:21:15.411Z,85.50
2023-02-13T20:24:01.634Z,85.80
2023-02-13T20:26:46.856Z,86.20
2023-02-13T20:29:33.862Z,86.20
2023-02-13T20:32:20.381Z,86.60
2023-02-13T20:35:12.309Z,87.10
2023-02-13T20:37:59.135Z,87.30
2023-02-13T20:40:44.600Z,87.20
2023-02-13T20:43:32.646Z,87.20
2023-02-13T20:46:18.512Z,87.30
2023-02-13T20:49:07.420Z,87.50
2023-02-13T20:51:53.443Z,87.60
2023-02-13T20:54:39.330Z,88.20
2023-02-13T20:57:24.906Z,88.70
2023-02-13T21:00:13.409Z,88.90
2023-02-13T21:03:01.166Z,89.20
2023-02-13T21:05:46.334Z,89.10
2023-02-13T21:08:31.699Z,89.10
2023-02-13T21:11:18.419Z,89.20
2023-02-13T21:14:04.136Z,89.20
2023-02-13T21:16:50.002Z,89.30
2023-02-13T21:19:35.898Z,89.50
2023-02-13T21:22:21.530Z,89.50
2023-02-13T21:25:07.288Z,89.70
2023-02-13T21:27:52.955Z,89.90
2023-02-13T21:30:38.956Z,89.70
2023-02-13T21:33:24.591Z,89.70
2023-02-13T21:36:12.397Z,89.90
2023-02-13T21:38:58.352Z,90.00
2023-02-13T21:41:45.849Z,90.00
2023-02-13T21:44:37.593Z,90.00
2023-02-13T21:47:23.055Z,90.10
2023-02-13T21:50:11.182Z,90.10
2023-02-13T21:52:56.550Z,90.10
2023-02-13T21:55:42.387Z,90.20
2023-02-13T21:58:27.698Z,90.20
2023-02-13T22:01:26.069Z,90.20
2023-02-13T22:04:12.831Z,90.30
2023-02-13T22:06:58.567Z,90.30
2023-02-13T22:09:44.131Z,90.30
2023-02-13T22:12:30.326Z,90.40
2023-02-13T22:15:15.916Z,90.50
2023-02-13T22:18:04.550Z,90.60
2023-02-13T22:20:51.325Z,90.70
2023-02-13T22:23:37.411Z,90.70
2023-02-13T22:26:31.488Z,90.70
2023-02-13T22:29:19.639Z,90.80
2023-02-13T22:32:15.474Z,90.70
2023-02-13T22:35:03.552Z,90.90
2023-02-13T22:37:49.183Z,91.10
2023-02-13T22:40:36.045Z,91.00
2023-02-13T22:43:21.663Z,91.00
2023-02-13T22:46:13.066Z,91.00
2023-02-13T22:48:59.041Z,91.10
2023-02-13T22:51:44.643Z,91.10
2023-02-13T22:54:30.135Z,91.10
2023-02-13T22:57:16.628Z,91.30
2023-02-13T23:00:02.680Z,91.50
2023-02-13T23:02:49.111Z,91.40
2023-02-13T23:05:34.738Z,91.40
2023-02-13T23:08:23.077Z,91.40
2023-02-13T23:11:31.113Z,91.40
2023-02-13T23:14:16.808Z,91.40
2023-02-13T23:17:20.597Z,91.50
2023-02-13T23:20:08.128Z,91.60
2023-02-13T23:22:54.068Z,91.70
2023-02-13T23:25:39.483Z,91.70
2023-02-13T23:28:25.400Z,91.80
2023-02-13T23:31:10.971Z,91.80
2023-02-13T23:33:56.632Z,91.90
2023-02-13T23:36:42.132Z,92.00
2023-02-13T23:39:27.864Z,92.10
2023-02-13T23:42:13.529Z,92.10
2023-02-13T23:44:59.133Z,92.10
2023-02-13T23:47:46.833Z,92.30
2023-02-13T23:50:32.592Z,92.50
2023-02-13T23:53:18.143Z,92.60
2023-02-13T23:56:05.181Z,92.50
2023-02-13T23:58:50.873Z,92.50
